<?xml version="1.0" encoding="UTF-8" standalone="no" ?>
<gpx xmlns="http://www.topografix.com/GPX/1/1" xmlns:xsi="http://www.w3.org/2001/XMLSchema-instance" xsi:schemaLocation="http://www.topografix.com/GPX/1/1 http://www.topografix.com/GPX/1/1/gpx.xsd" version="1.1" creator="VisuGPX - https://www.visugpx.com">
  <metadata>
    <name>luzech 6 descentes</name>
    <desc><![CDATA[parcours typé enduro avec de belles descentes]]></desc>
  </metadata>
  <trk>
    <name><![CDATA[2014-04-01-08-18-57]]></name>
    <trkseg>
      <trkpt lat="44.43712" lon="1.29334">
        <ele>155.4</ele>
        <time>2014-04-01T10:04:29Z</time>
      </trkpt>
      <trkpt lat="44.43709" lon="1.29342">
        <ele>157.231</ele>
        <time>2014-04-01T10:04:34Z</time>
      </trkpt>
      <trkpt lat="44.43708" lon="1.29343">
        <ele>157.971</ele>
        <time>2014-04-01T10:04:35Z</time>
      </trkpt>
      <trkpt lat="44.43702" lon="1.29352">
        <ele>162.203</ele>
        <time>2014-04-01T10:04:42Z</time>
      </trkpt>
      <trkpt lat="44.43699" lon="1.29359">
        <ele>164.181</ele>
        <time>2014-04-01T10:04:47Z</time>
      </trkpt>
      <trkpt lat="44.43691" lon="1.29374">
        <ele>166.611</ele>
        <time>2014-04-01T10:04:55Z</time>
      </trkpt>
      <trkpt lat="44.43685" lon="1.29387">
        <ele>168.151</ele>
        <time>2014-04-01T10:05:02Z</time>
      </trkpt>
      <trkpt lat="44.43683" lon="1.29402">
        <ele>166.669</ele>
        <time>2014-04-01T10:05:09Z</time>
      </trkpt>
      <trkpt lat="44.4368" lon="1.29415">
        <ele>167.309</ele>
        <time>2014-04-01T10:05:15Z</time>
      </trkpt>
      <trkpt lat="44.43678" lon="1.29425">
        <ele>168.16</ele>
        <time>2014-04-01T10:05:21Z</time>
      </trkpt>
      <trkpt lat="44.43678" lon="1.29439">
        <ele>168.119</ele>
        <time>2014-04-01T10:05:27Z</time>
      </trkpt>
      <trkpt lat="44.43677" lon="1.29449">
        <ele>170.53</ele>
        <time>2014-04-01T10:05:32Z</time>
      </trkpt>
      <trkpt lat="44.43675" lon="1.29461">
        <ele>174.271</ele>
        <time>2014-04-01T10:05:39Z</time>
      </trkpt>
      <trkpt lat="44.43673" lon="1.29475">
        <ele>177.021</ele>
        <time>2014-04-01T10:05:46Z</time>
      </trkpt>
      <trkpt lat="44.43671" lon="1.29487">
        <ele>180.641</ele>
        <time>2014-04-01T10:05:53Z</time>
      </trkpt>
      <trkpt lat="44.43672" lon="1.29498">
        <ele>182.13</ele>
        <time>2014-04-01T10:05:59Z</time>
      </trkpt>
      <trkpt lat="44.43673" lon="1.29511">
        <ele>184.3</ele>
        <time>2014-04-01T10:06:05Z</time>
      </trkpt>
      <trkpt lat="44.43671" lon="1.29526">
        <ele>180.889</ele>
        <time>2014-04-01T10:06:12Z</time>
      </trkpt>
      <trkpt lat="44.43665" lon="1.29539">
        <ele>183.431</ele>
        <time>2014-04-01T10:06:20Z</time>
      </trkpt>
      <trkpt lat="44.43658" lon="1.29552">
        <ele>185.751</ele>
        <time>2014-04-01T10:06:28Z</time>
      </trkpt>
      <trkpt lat="44.43654" lon="1.29563">
        <ele>187.931</ele>
        <time>2014-04-01T10:06:35Z</time>
      </trkpt>
      <trkpt lat="44.4365" lon="1.2957">
        <ele>189.431</ele>
        <time>2014-04-01T10:06:39Z</time>
      </trkpt>
      <trkpt lat="44.43646" lon="1.29577">
        <ele>192.431</ele>
        <time>2014-04-01T10:06:44Z</time>
      </trkpt>
      <trkpt lat="44.43644" lon="1.29581">
        <ele>194.872</ele>
        <time>2014-04-01T10:06:47Z</time>
      </trkpt>
      <trkpt lat="44.43636" lon="1.29591">
        <ele>197.571</ele>
        <time>2014-04-01T10:06:57Z</time>
      </trkpt>
      <trkpt lat="44.43629" lon="1.29595">
        <ele>196.72</ele>
        <time>2014-04-01T10:07:04Z</time>
      </trkpt>
      <trkpt lat="44.43627" lon="1.29596">
        <ele>196.63</ele>
        <time>2014-04-01T10:07:06Z</time>
      </trkpt>
      <trkpt lat="44.43619" lon="1.296">
        <ele>196.75</ele>
        <time>2014-04-01T10:07:13Z</time>
      </trkpt>
      <trkpt lat="44.43611" lon="1.29604">
        <ele>197.75</ele>
        <time>2014-04-01T10:07:21Z</time>
      </trkpt>
      <trkpt lat="44.43604" lon="1.29607">
        <ele>197.9</ele>
        <time>2014-04-01T10:07:28Z</time>
      </trkpt>
      <trkpt lat="44.43595" lon="1.29611">
        <ele>198.631</ele>
        <time>2014-04-01T10:07:36Z</time>
      </trkpt>
      <trkpt lat="44.43587" lon="1.29613">
        <ele>198.87</ele>
        <time>2014-04-01T10:07:42Z</time>
      </trkpt>
      <trkpt lat="44.43578" lon="1.29614">
        <ele>199.99</ele>
        <time>2014-04-01T10:07:49Z</time>
      </trkpt>
      <trkpt lat="44.4357" lon="1.29615">
        <ele>201.19</ele>
        <time>2014-04-01T10:07:55Z</time>
      </trkpt>
      <trkpt lat="44.43561" lon="1.29618">
        <ele>202.26</ele>
        <time>2014-04-01T10:08:02Z</time>
      </trkpt>
      <trkpt lat="44.43551" lon="1.2962">
        <ele>204.361</ele>
        <time>2014-04-01T10:08:09Z</time>
      </trkpt>
      <trkpt lat="44.43541" lon="1.29623">
        <ele>205.5</ele>
        <time>2014-04-01T10:08:15Z</time>
      </trkpt>
      <trkpt lat="44.4353" lon="1.29632">
        <ele>204.45</ele>
        <time>2014-04-01T10:08:22Z</time>
      </trkpt>
      <trkpt lat="44.43528" lon="1.2964">
        <ele>204.46</ele>
        <time>2014-04-01T10:08:26Z</time>
      </trkpt>
      <trkpt lat="44.43527" lon="1.29642">
        <ele>205.727</ele>
        <time>2014-04-01T10:08:29Z</time>
      </trkpt>
    </trkseg>
  </trk>
</gpx>